createdAt,value
2022-12-15T00:00:39.564Z,-0.01
2022-12-15T00:03:30.351Z,0.06
2022-12-15T00:06:21.726Z,0.15
2022-12-15T00:09:14.412Z,0.25
2022-12-15T00:12:05.702Z,0.19
2022-12-15T00:14:56.126Z,0.17
2022-12-15T00:17:47.091Z,0.25
2022-12-15T00:20:37.343Z,0.36
2022-12-15T00:23:30.947Z,0.25
2022-12-15T00:26:21.967Z,0.20
2022-12-15T00:29:12.732Z,0.15
2022-12-15T00:32:02.756Z,0.20
2022-12-15T00:34:53.542Z,0.27
2022-12-15T00:37:43.726Z,0.27
2022-12-15T00:40:16.255Z,0.24
2022-12-15T00:42:49.513Z,0.13
2022-12-15T00:45:42.218Z,0.23
2022-12-15T00:48:14.496Z,0.08
2022-12-15T00:50:52.574Z,0.17
2022-12-15T00:53:43.440Z,0.21
2022-12-15T00:56:34.161Z,0.16
2022-12-15T00:59:24.876Z,0.10
2022-12-15T01:02:16.289Z,0.17
2022-12-15T01:05:06.673Z,0.15
2022-12-15T01:07:57.521Z,0.15
2022-12-15T01:10:47.834Z,0.02
2022-12-15T01:13:38.875Z,0.07
2022-12-15T01:16:33.906Z,0.08
2022-12-15T01:19:27.214Z,0.04
2022-12-15T01:21:59.774Z,0.08
2022-12-15T01:24:32.003Z,0.05
2022-12-15T01:27:04.471Z,0.03
2022-12-15T01:29:36.328Z,0.12
2022-12-15T01:32:09.335Z,0.18
2022-12-15T01:34:41.306Z,0.16
2022-12-15T01:37:13.852Z,0.19
2022-12-15T01:40:04.174Z,0.17
2022-12-15T01:42:36.476Z,0.10
2022-12-15T01:45:27.029Z,0.14
2022-12-15T01:48:10.616Z,0.17
2022-12-15T01:51:07.428Z,0.08
2022-12-15T01:53:52.275Z,-0.04
2022-12-15T01:56:26.540Z,0.15
2022-12-15T01:59:02.517Z,0.13
2022-12-15T02:01:34.821Z,-0.05
2022-12-15T02:04:09.110Z,-0.11
2022-12-15T02:06:41.018Z,0.01
2022-12-15T02:09:14.166Z,-0.05
2022-12-15T02:12:41.465Z,0.08
2022-12-15T02:15:49.447Z,0.19
2022-12-15T02:19:07.862Z,0.19
2022-12-15T02:22:25.482Z,0.11
2022-12-15T02:25:23.018Z,0.08
2022-12-15T02:28:08.815Z,0.10
2022-12-15T02:31:32.297Z,0.10
2022-12-15T02:34:15.246Z,0.18
2022-12-15T02:36:52.214Z,0.09
2022-12-15T02:39:25.761Z,0.01
2022-12-15T02:41:58.046Z,0.01
2022-12-15T02:44:44.074Z,-0.01
2022-12-15T02:47:54.067Z,-0.04
2022-12-15T02:50:40.871Z,0.01
2022-12-15T02:53:57.984Z,0.07
2022-12-15T02:56:53.876Z,-0.10
2022-12-15T02:59:55.850Z,-0.06
2022-12-15T03:02:31.109Z,0.07
2022-12-15T03:05:04.457Z,0.12
2022-12-15T03:07:36.762Z,0.09
2022-12-15T03:10:11.207Z,0.09
2022-12-15T03:12:44.006Z,0.14
2022-12-15T03:15:16.424Z,0.01
2022-12-15T03:17:49.265Z,0.06
2022-12-15T03:20:21.616Z,-0.01
2022-12-15T03:22:53.855Z,0.00
2022-12-15T03:25:26.546Z,0.02
2022-12-15T03:27:58.418Z,-0.09
2022-12-15T03:30:31.162Z,-0.10
2022-12-15T03:33:03.084Z,-0.12
2022-12-15T03:35:35.823Z,-0.06
2022-12-15T03:38:08.158Z,-0.11
2022-12-15T03:40:40.068Z,-0.09
2022-12-15T03:43:12.563Z,-0.06
2022-12-15T03:45:44.486Z,-0.06
2022-12-15T03:48:17.281Z,-0.16
2022-12-15T03:50:50.466Z,-0.16
2022-12-15T03:53:22.429Z,-0.20
2022-12-15T03:55:55.273Z,-0.17
2022-12-15T03:58:27.542Z,-0.26
2022-12-15T04:00:59.453Z,-0.22
2022-12-15T04:03:32.550Z,-0.27
2022-12-15T04:06:05.223Z,-0.33
2022-12-15T04:08:38.044Z,-0.33
2022-12-15T04:11:09.928Z,-0.42
2022-12-15T04:13:43.293Z,-0.36
2022-12-15T04:16:19.834Z,-0.25
2022-12-15T04:19:12.682Z,-0.22
2022-12-15T04:21:44.563Z,-0.22
2022-12-15T04:24:35.553Z,-0.39
2022-12-15T04:27:25.792Z,-0.23
2022-12-15T04:30:16.958Z,-0.26
2022-12-15T04:33:07.708Z,-0.25
2022-12-15T04:35:58.995Z,-0.24
2022-12-15T04:38:50.535Z,-0.23
2022-12-15T04:41:43.564Z,-0.32
2022-12-15T04:44:34.279Z,-0.29
2022-12-15T04:47:24.698Z,-0.22
2022-12-15T04:50:15.761Z,-0.31
2022-12-15T04:53:06.440Z,-0.27
2022-12-15T04:55:57.622Z,-0.37
2022-12-15T04:58:47.870Z,-0.52
2022-12-15T05:01:39.324Z,-0.51
2022-12-15T05:04:30.794Z,-0.45
2022-12-15T05:07:21.249Z,1.10
2022-12-15T05:10:15.153Z,0.29
2022-12-15T05:13:05.994Z,0.04
2022-12-15T05:15:57.371Z,-0.09
2022-12-15T05:18:48.178Z,-0.23
2022-12-15T05:21:39.217Z,-0.12
2022-12-15T05:24:29.364Z,-0.24
2022-12-15T05:27:20.505Z,-0.23
2022-12-15T05:30:11.203Z,-0.26
2022-12-15T05:32:43.477Z,-0.19
2022-12-15T05:35:16.992Z,-0.35
2022-12-15T05:37:48.965Z,-0.29
2022-12-15T05:40:21.673Z,-0.28
2022-12-15T05:42:53.544Z,-0.15
2022-12-15T05:45:28.346Z,-0.14
2022-12-15T05:48:00.665Z,-0.11
2022-12-15T05:50:32.624Z,-0.19
2022-12-15T05:53:05.353Z,-0.08
2022-12-15T05:55:37.203Z,-0.14
2022-12-15T06:01:26.299Z,-0.23
2022-12-15T06:06:52.446Z,-0.32
2022-12-15T06:09:24.284Z,-0.22
2022-12-15T06:11:56.578Z,-0.30
2022-12-15T06:14:28.503Z,-0.33
2022-12-15T06:17:01.481Z,-0.32
2022-12-15T06:19:33.869Z,-0.38
2022-12-15T06:22:06.179Z,-0.39
2022-12-15T06:24:39.459Z,-0.56
2022-12-15T06:27:11.358Z,-0.54
2022-12-15T06:29:44.050Z,-0.57
2022-12-15T06:32:18.434Z,-0.59
2022-12-15T06:34:51.100Z,-0.70
2022-12-15T06:37:23.384Z,-0.62
2022-12-15T06:39:55.317Z,-0.62
2022-12-15T06:42:28.587Z,-0.52
2022-12-15T06:45:01.020Z,-0.50
2022-12-15T06:47:32.904Z,-0.51
2022-12-15T06:50:05.957Z,-0.51
2022-12-15T06:52:37.809Z,-0.46
2022-12-15T06:55:10.549Z,-0.50
2022-12-15T06:57:42.395Z,-0.54
2022-12-15T07:00:16.089Z,-0.50
2022-12-15T07:02:50.111Z,-0.53
2022-12-15T07:05:23.223Z,-0.50
2022-12-15T07:07:55.099Z,-0.49
2022-12-15T07:10:28.474Z,-0.47
2022-12-15T07:13:00.392Z,-0.52
2022-12-15T07:15:33.196Z,-0.49
2022-12-15T07:18:07.012Z,-0.48
2022-12-15T07:20:39.374Z,-0.49
2022-12-15T07:23:12.092Z,-0.56
2022-12-15T07:25:43.953Z,-0.57
2022-12-15T07:28:20.053Z,-0.55
2022-12-15T07:31:02.534Z,-0.71
2022-12-15T07:33:36.890Z,-0.66
2022-12-15T07:36:09.054Z,-0.66
2022-12-15T07:38:41.887Z,-0.78
2022-12-15T07:41:13.828Z,-0.75
2022-12-15T07:43:48.197Z,-0.72
2022-12-15T07:46:21.955Z,-0.75
2022-12-15T07:48:54.555Z,-0.65
2022-12-15T07:51:27.733Z,-0.70
2022-12-15T07:54:00.874Z,-0.69
2022-12-15T07:56:38.909Z,-0.66
2022-12-15T07:59:11.959Z,-0.67
2022-12-15T08:01:44.217Z,-0.65
2022-12-15T08:04:20.477Z,-0.76
2022-12-15T08:06:54.622Z,-0.66
2022-12-15T08:09:27.390Z,-0.69
2022-12-15T08:12:00.361Z,-0.68
2022-12-15T08:14:34.338Z,-0.47
2022-12-15T08:17:06.500Z,-0.65
2022-12-15T08:19:39.859Z,-0.57
2022-12-15T08:22:15.453Z,-0.51
2022-12-15T08:24:49.059Z,-0.47
2022-12-15T08:27:22.441Z,-0.42
2022-12-15T08:29:54.731Z,-0.58
2022-12-15T08:32:27.611Z,-0.58
2022-12-15T08:34:59.476Z,-0.54
2022-12-15T08:37:32.204Z,-0.54
2022-12-15T08:40:05.375Z,-0.61
2022-12-15T08:42:38.535Z,-0.58
2022-12-15T08:45:14.964Z,-0.49
2022-12-15T08:47:46.901Z,-0.43
2022-12-15T08:50:19.602Z,-0.40
2022-12-15T08:53:21.353Z,-0.47
2022-12-15T08:55:45.052Z,5.22
2022-12-15T08:58:18.298Z,0.94
2022-12-15T09:00:50.271Z,0.08
2022-12-15T09:03:23.861Z,-0.11
2022-12-15T09:05:57.552Z,-0.32
2022-12-15T09:08:31.342Z,-0.33
2022-12-15T09:11:06.442Z,-0.29
2022-12-15T09:13:39.291Z,-0.36
2022-12-15T09:16:15.983Z,-0.40
2022-12-15T09:18:51.619Z,-0.38
2022-12-15T09:21:28.063Z,-0.32
2022-12-15T09:24:02.168Z,-0.51
2022-12-15T09:26:35.362Z,-0.45
2022-12-15T09:29:07.629Z,-0.43
2022-12-15T09:31:40.479Z,-0.37
2022-12-15T09:34:16.474Z,-0.16
2022-12-15T09:36:48.421Z,-0.15
2022-12-15T09:39:21.743Z,-0.23
2022-12-15T09:41:59.348Z,-0.15
2022-12-15T09:44:33.244Z,-0.09
2022-12-15T09:47:45.321Z,-0.21
2022-12-15T09:50:24.563Z,-0.22
2022-12-15T09:53:01.582Z,-0.15
2022-12-15T09:55:34.386Z,-0.16
2022-12-15T09:58:50.589Z,-0.27
2022-12-15T10:01:51.362Z,-0.20
2022-12-15T10:04:58.732Z,-0.16
2022-12-15T10:07:39.930Z,-0.15
2022-12-15T10:10:41.206Z,-0.22
2022-12-15T10:13:24.094Z,-0.23
2022-12-15T10:16:03.887Z,-0.25
2022-12-15T10:18:50.535Z,-0.18
2022-12-15T10:21:28.635Z,-0.17
2022-12-15T10:24:59.711Z,-0.13
2022-12-15T10:27:46.489Z,-0.17
2022-12-15T10:30:22.154Z,-0.11
2022-12-15T10:33:22.893Z,-0.10
2022-12-15T10:35:56.293Z,-0.16
2022-12-15T10:38:42.385Z,-0.23
2022-12-15T10:41:18.194Z,-0.24
2022-12-15T10:43:52.387Z,-0.31
2022-12-15T10:46:28.103Z,-0.40
2022-12-15T10:49:06.868Z,-0.39
2022-12-15T10:51:53.917Z,-0.43
2022-12-15T10:54:37.347Z,-0.48
2022-12-15T10:57:31.707Z,-0.32
2022-12-15T11:00:16.053Z,-0.36
2022-12-15T11:02:48.051Z,-0.35
2022-12-15T11:05:20.682Z,-0.51
2022-12-15T11:08:14.698Z,-0.31
2022-12-15T11:11:17.995Z,-0.33
2022-12-15T11:14:10.291Z,-0.28
2022-12-15T11:16:59.276Z,-0.33
2022-12-15T11:19:49.422Z,-0.20
2022-12-15T11:22:50.632Z,-0.23
2022-12-15T11:25:42.465Z,-0.33
2022-12-15T11:28:20.704Z,-0.29
2022-12-15T11:31:29.810Z,-0.26
2022-12-15T11:34:01.729Z,-0.29
2022-12-15T11:37:36.519Z,-0.16
2022-12-15T11:40:39.680Z,-0.14
2022-12-15T11:43:11.445Z,0.03
2022-12-15T11:46:17.664Z,0.01
2022-12-15T11:48:56.553Z,0.04
2022-12-15T11:51:53.556Z,0.11
2022-12-15T11:54:53.591Z,0.12
2022-12-15T11:58:09.509Z,-0.02
2022-12-15T12:01:01.491Z,-0.04
2022-12-15T12:04:13.328Z,0.12
2022-12-15T12:06:59.151Z,0.10
2022-12-15T12:09:37.473Z,0.06
2022-12-15T12:12:34.565Z,0.18
2022-12-15T12:15:15.915Z,0.08
2022-12-15T12:18:12.991Z,-0.06
2022-12-15T12:21:11.258Z,0.01
2022-12-15T12:23:53.975Z,-0.17
2022-12-15T12:26:26.815Z,-0.06
2022-12-15T12:29:18.233Z,-0.26
2022-12-15T12:32:10.285Z,-0.16
2022-12-15T12:35:30.982Z,-0.20
2022-12-15T12:38:08.845Z,-0.12
2022-12-15T12:40:40.996Z,-0.09
2022-12-15T12:43:32.886Z,0.04
2022-12-15T12:46:14.737Z,-0.08
2022-12-15T12:48:51.001Z,-0.10
2022-12-15T12:51:41.316Z,0.06
2022-12-15T12:54:34.686Z,-0.08
2022-12-15T12:57:12.708Z,0.01
2022-12-15T12:59:57.335Z,0.02
2022-12-15T13:02:30.912Z,0.05
2022-12-15T13:05:27.355Z,0.09
2022-12-15T13:08:05.355Z,0.04
2022-12-15T13:10:41.183Z,0.00
2022-12-15T13:13:31.901Z,-0.09
2022-12-15T13:16:40.100Z,0.02
2022-12-15T13:19:13.655Z,-0.12
2022-12-15T13:21:53.123Z,-0.06
2022-12-15T13:24:41.326Z,-0.03
2022-12-15T13:27:15.627Z,-0.13
2022-12-15T13:30:07.941Z,-0.07
2022-12-15T13:32:46.450Z,0.01
2022-12-15T13:35:19.711Z,0.00
2022-12-15T13:38:02.879Z,0.10
2022-12-15T13:40:35.579Z,0.14
2022-12-15T13:43:31.885Z,0.10
2022-12-15T13:46:23.651Z,0.12
2022-12-15T13:49:37.341Z,0.10
2022-12-15T13:53:17.929Z,0.07
2022-12-15T13:55:59.365Z,0.05
2022-12-15T13:58:41.661Z,-0.03
2022-12-15T14:01:31.811Z,-0.05
2022-12-15T14:04:20.199Z,-0.07
2022-12-15T14:07:00.257Z,-0.11
2022-12-15T14:09:42.435Z,-0.14
2022-12-15T14:12:14.571Z,-0.23
2022-12-15T14:14:49.351Z,-0.18
2022-12-15T14:17:22.033Z,-0.17
2022-12-15T14:19:54.626Z,-0.18
2022-12-15T14:22:30.483Z,-0.30
2022-12-15T14:25:24.382Z,-0.43
2022-12-15T14:27:57.201Z,-0.32
2022-12-15T14:30:33.848Z,-0.25
2022-12-15T14:33:15.013Z,-0.16
2022-12-15T14:35:51.866Z,-0.16
2022-12-15T14:38:42.451Z,-0.13
2022-12-15T14:41:25.916Z,-0.21
2022-12-15T14:44:31.416Z,-0.10
2022-12-15T14:46:58.973Z,-0.15
2022-12-15T14:49:38.430Z,-0.17
2022-12-15T14:52:39.299Z,-0.30
2022-12-15T14:55:35.176Z,-0.32
2022-12-15T14:58:40.836Z,-0.26
2022-12-15T15:01:41.144Z,-0.27
2022-12-15T15:04:32.578Z,-0.22
2022-12-15T15:07:14.308Z,-0.34
2022-12-15T15:09:46.957Z,-0.28
2022-12-15T15:12:23.262Z,-0.33
2022-12-15T15:15:03.971Z,-0.26
2022-12-15T15:17:48.856Z,-0.14
2022-12-15T15:20:29.543Z,-0.26
2022-12-15T15:23:08.077Z,-0.35
2022-12-15T15:25:52.456Z,-0.23
2022-12-15T15:28:29.032Z,-0.21
2022-12-15T15:31:08.004Z,-0.36
2022-12-15T15:33:40.330Z,-0.31
2022-12-15T15:36:14.324Z,-0.27
2022-12-15T15:38:47.102Z,-0.35
2022-12-15T15:41:32.441Z,-0.33
2022-12-15T15:44:14.959Z,-0.51
2022-12-15T15:46:51.285Z,-0.52
2022-12-15T15:49:24.501Z,-0.52
2022-12-15T15:51:57.186Z,-0.53
2022-12-15T15:54:36.007Z,-0.48
2022-12-15T15:57:16.411Z,-0.43
2022-12-15T15:59:48.623Z,-0.38
2022-12-15T16:02:21.080Z,-0.38
2022-12-15T16:04:53.076Z,-0.42
2022-12-15T16:07:29.173Z,-0.39
2022-12-15T16:10:01.147Z,-0.43
2022-12-15T16:12:51.686Z,-0.50
2022-12-15T16:15:26.699Z,-0.41
2022-12-15T16:17:59.570Z,-0.36
2022-12-15T16:20:31.446Z,-0.43
2022-12-15T16:23:24.367Z,-0.34
2022-12-15T16:26:00.272Z,-0.35
2022-12-15T16:28:33.273Z,-0.36
2022-12-15T16:31:05.573Z,-0.36
2022-12-15T16:33:38.121Z,-0.25
2022-12-15T16:36:14.156Z,-0.37
2022-12-15T16:38:47.064Z,-0.43
2022-12-15T16:41:19.125Z,-0.32
2022-12-15T16:43:51.669Z,-0.27
2022-12-15T16:46:23.585Z,-0.33
2022-12-15T16:48:56.169Z,-0.35
2022-12-15T16:51:37.592Z,-0.38
2022-12-15T16:54:24.444Z,-0.47
2022-12-15T16:56:58.639Z,-0.40
2022-12-15T16:59:33.406Z,-0.35
2022-12-15T17:02:29.319Z,-0.41
2022-12-15T17:05:01.587Z,-0.41
2022-12-15T17:07:34.177Z,-0.41
2022-12-15T17:10:07.233Z,-0.44
2022-12-15T17:12:39.783Z,-0.42
2022-12-15T17:15:26.190Z,-0.41
2022-12-15T17:17:58.810Z,-0.41
2022-12-15T17:20:31.660Z,-0.32
2022-12-15T17:23:10.997Z,-0.45
2022-12-15T17:26:20.958Z,-0.43
2022-12-15T17:28:40.983Z,-0.46
2022-12-15T17:31:27.651Z,-0.56
2022-12-15T17:34:25.247Z,-0.47
2022-12-15T17:37:03.393Z,-0.38
2022-12-15T17:39:35.653Z,-0.31
2022-12-15T17:42:20.180Z,-0.50
2022-12-15T17:44:52.231Z,-0.43
2022-12-15T17:47:25.346Z,-0.45
2022-12-15T17:49:57.234Z,-0.36
2022-12-15T17:52:34.783Z,-0.37
2022-12-15T17:55:24.168Z,-0.39
2022-12-15T17:57:56.731Z,-0.35
2022-12-15T18:00:32.420Z,-0.36
2022-12-15T18:03:05.268Z,-0.32
2022-12-15T18:05:37.467Z,-0.30
2022-12-15T18:08:20.235Z,-0.31
2022-12-15T18:10:56.176Z,-0.24
2022-12-15T18:13:35.574Z,-0.26
2022-12-15T18:16:07.963Z,-0.36
2022-12-15T18:18:40.631Z,-0.10
2022-12-15T18:21:15.554Z,-0.15
2022-12-15T18:23:49.599Z,-0.12
2022-12-15T18:26:22.818Z,-0.28
2022-12-15T18:28:55.431Z,-0.13
2022-12-15T18:31:29.425Z,-0.15
2022-12-15T18:34:04.663Z,-0.31
2022-12-15T18:36:37.572Z,-0.34
2022-12-15T18:39:17.533Z,-0.39
2022-12-15T18:41:50.877Z,-0.32
2022-12-15T18:44:28.906Z,-0.16
2022-12-15T18:47:01.027Z,-0.26
2022-12-15T18:49:33.605Z,-0.14
2022-12-15T18:52:06.000Z,-0.03
2022-12-15T18:54:38.937Z,-0.17
2022-12-15T18:57:31.158Z,-0.13
2022-12-15T19:00:29.672Z,-0.08
2022-12-15T19:03:01.705Z,-0.08
2022-12-15T19:05:34.457Z,-0.15
2022-12-15T19:08:18.024Z,-0.13
2022-12-15T19:11:01.568Z,-0.16
2022-12-15T19:13:37.463Z,-0.21
2022-12-15T19:16:20.205Z,-0.35
2022-12-15T19:19:16.911Z,-0.34
2022-12-15T19:22:08.285Z,-0.34
2022-12-15T19:24:55.126Z,-0.35
2022-12-15T19:27:27.814Z,-0.38
2022-12-15T19:29:59.722Z,-0.38
2022-12-15T19:32:32.216Z,-0.43
2022-12-15T19:35:04.456Z,-0.48
2022-12-15T19:37:41.050Z,-0.41
2022-12-15T19:40:30.535Z,-0.45
2022-12-15T19:43:04.529Z,-0.59
2022-12-15T19:45:36.469Z,-0.56
2022-12-15T19:48:11.605Z,-0.43
2022-12-15T19:50:43.920Z,-0.51
2022-12-15T19:53:30.866Z,-0.52
2022-12-15T19:56:04.861Z,-0.65
2022-12-15T19:58:37.374Z,-0.70
2022-12-15T20:01:14.731Z,-0.69
2022-12-15T20:03:52.414Z,-0.52
2022-12-15T20:06:26.998Z,-0.46
2022-12-15T20:09:00.138Z,-0.52
2022-12-15T20:11:33.046Z,-0.57
2022-12-15T20:14:14.371Z,-0.51
2022-12-15T20:16:46.340Z,-0.69
2022-12-15T20:19:18.974Z,-0.68
2022-12-15T20:21:51.454Z,-0.60
2022-12-15T20:24:24.016Z,-0.73
2022-12-15T20:26:55.952Z,-0.80
2022-12-15T20:29:31.492Z,-0.80
2022-12-15T20:32:11.895Z,-0.84
2022-12-15T20:34:45.330Z,-0.90
2022-12-15T20:37:30.391Z,-0.90
2022-12-15T20:40:03.378Z,-1.04
2022-12-15T20:42:35.261Z,-0.86
2022-12-15T20:45:07.964Z,-0.94
2022-12-15T20:47:41.756Z,-0.88
2022-12-15T20:50:36.373Z,-0.81
2022-12-15T20:53:27.777Z,-0.90
2022-12-15T20:56:00.410Z,-0.77
2022-12-15T20:58:33.250Z,-0.80
2022-12-15T21:01:36.610Z,-0.84
2022-12-15T21:04:25.857Z,-0.89
2022-12-15T21:06:58.229Z,-0.84
2022-12-15T21:09:30.210Z,-0.86
2022-12-15T21:12:07.444Z,-0.88
2022-12-15T21:14:41.470Z,-0.87
2022-12-15T21:17:23.013Z,-0.84
2022-12-15T21:19:54.991Z,-0.82
2022-12-15T21:22:28.046Z,-0.94
2022-12-15T21:25:00.873Z,-1.05
2022-12-15T21:27:33.474Z,-1.02
2022-12-15T21:30:20.502Z,-1.00
2022-12-15T21:32:53.224Z,-0.93
2022-12-15T21:35:30.101Z,-0.84
2022-12-15T21:38:05.131Z,-0.92
2022-12-15T21:40:37.135Z,-0.93
2022-12-15T21:43:11.395Z,-1.12
2022-12-15T21:45:43.351Z,-1.19
2022-12-15T21:48:34.591Z,-1.05
2022-12-15T21:51:14.764Z,-1.08
2022-12-15T21:53:47.427Z,-1.08
2022-12-15T21:56:21.209Z,-1.13
2022-12-15T21:58:54.968Z,-1.04
2022-12-15T22:01:30.858Z,-1.12
2022-12-15T22:04:11.244Z,-0.92
2022-12-15T22:06:48.639Z,-0.98
2022-12-15T22:09:23.067Z,-0.91
2022-12-15T22:11:56.364Z,-1.01
2022-12-15T22:14:33.917Z,-1.02
2022-12-15T22:17:20.941Z,-1.04
2022-12-15T22:19:53.530Z,-0.94
2022-12-15T22:22:31.605Z,-1.00
2022-12-15T22:25:04.994Z,-1.13
2022-12-15T22:27:36.883Z,-1.07
2022-12-15T22:30:27.758Z,-0.93
2022-12-15T22:33:00.175Z,-1.05
2022-12-15T22:35:32.739Z,-1.12
2022-12-15T22:38:04.618Z,-1.09
2022-12-15T22:40:37.099Z,-1.04
2022-12-15T22:43:34.038Z,-1.14
2022-12-15T22:46:10.906Z,-1.22
2022-12-15T22:48:47.360Z,-1.28
2022-12-15T22:51:20.121Z,-1.00
2022-12-15T22:53:52.008Z,-1.07
2022-12-15T22:56:27.289Z,-1.09
2022-12-15T22:59:03.892Z,-0.92
2022-12-15T23:01:36.417Z,-0.79
2022-12-15T23:04:08.377Z,-0.76
2022-12-15T23:06:41.450Z,-0.62
2022-12-15T23:09:13.335Z,-0.68
2022-12-15T23:11:45.987Z,-0.77
2022-12-15T23:14:18.900Z,-0.83
2022-12-15T23:16:51.370Z,-0.77
2022-12-15T23:19:25.808Z,-0.86
2022-12-15T23:21:58.715Z,-0.91
2022-12-15T23:24:31.240Z,-0.91
2022-12-15T23:27:03.901Z,-0.98
2022-12-15T23:29:36.196Z,-1.07
2022-12-15T23:32:08.678Z,-1.16
2022-12-15T23:34:40.558Z,-1.00
2022-12-15T23:37:13.076Z,-1.04
2022-12-15T23:39:45.320Z,-1.13
2022-12-15T23:42:17.881Z,-1.12
2022-12-15T23:44:49.850Z,-1.24
2022-12-15T23:47:22.394Z,-1.30
2022-12-15T23:49:54.581Z,-1.29
2022-12-15T23:52:29.052Z,-1.39
2022-12-15T23:55:00.933Z,-1.37
2022-12-15T23:57:34.611Z,-1.28
